Aeroporto :
LOGIN :

Iscrizione | Disclaimer

   EN    FR    IT 

 










Sommario :    VFR   VFR Marginale   IFR   IFR Intensivo   IFR Molto Intensivo
Visibilità : 
Base nubi : 
>= 8 km
>= 3000ft
5 / 8 km
1000 / 3000 ft
1500m / 5 km
500 / 1000 ft
800 / 1500m
200 / 500 ft
< 800m
< 200 ft
Simboli :   Temporali  Nebbia  Neve Forte  Precipitazioni Forti  Vento > 20 kt
SIGMETs :   Varie  Temporali  Ghiacco  Turbolenza  Onda orograficha  Ceneri Vulcaniche






- Altitudine del aeroporto : 33 ft
- Codice IATA : MHZ


EGUN - RAF Mildenhall

ULTIMO METAR :
  • 280125Z AUTO 07004KT 8000 -RA BR BKN045 OVC060 01/ A3002 RMK AO2 RAB15 SLP169 FZRANO $

METARs OBSOLETI :
  • 280115Z AUTO 00000KT 9999 -RA FEW049 OVC065 01/ A3002 RMK AO2 RAB15 SLP169 FZRANO $
  • 280056Z AUTO 09005KT 9999 BKN075 BKN100 01/ A3002 RMK AO2 SLP169 FZRANO $
  • 280007Z AUTO 00000KT 5000 BR SCT100 00/ A3003 RMK AO2 VIS 2800 RWY11 SLP173 FZRANO $
  • 280002Z AUTO 00000KT 2000 BR FEW100 00/ A3003 RMK AO2 VIS 1200V2000 SLP173 FZRANO $
  • 272356Z AUTO 00000KT 1400 R29/1200VP1500 BR CLR 00/ A3002 RMK AO2 SLP169 10034 20000 400371005 57003 FZRANO $
  • 272344Z AUTO 00000KT 1200 R29/1200VP1500 BR CLR 00/ A3002 RMK AO2 SLP169 FZRANO $
  • 272339Z AUTO 00000KT 1000 R29/1100V1300 BR CLR 00/ A3002 RMK AO2 VIS 1000V2400 SLP169 FZRANO $
  • 272326Z AUTO 00000KT 3000 BR CLR 00/ A3002 RMK AO2 VIS 2000V3000 VIS 1000 RWY11 SLP169 FZRANO $
  • 272321Z AUTO 00000KT 2200 BR CLR 00/ A3003 RMK AO2 VIS 2000V4400 SLP173 FZRANO $
  • 272301Z AUTO 00000KT 4000 BR CLR 00/00 A3002 RMK AO2 VIS 4000V5000 SLP169 FZRANO $
  • 272231Z AUTO 00000KT 5000 BR CLR 00/00 A3003 RMK AO2 SLP173 FZRANO $
  • 272221Z AUTO 00000KT 3600 BR CLR 01/01 A3003 RMK AO2 VIS 3600V6000 SLP173 FZRANO $

Previsioni scadute.



MetMap, La meteo Aeronautica in un colpo d'occhio ! - Copyright ORBIFLY Dicembre 2007 - Disclaimer

ORBIFLY MET'MAP TEAM :

Programmazione e sviluppo : Alexandra Zaïnal
Concezione : Baudouin d'Aumeries
Aiuto per la programmazione : Marc-Olivier Méhu
Supporto tecnico e logistico : Manuel Goepfert
Aiuto per la traduzione : Arnaldo La Scala

Contatto : metmap@orbifly.com




FONTI E CREDITI :

   NOAA